Time;durP1;ratioP1;P1;durP2;ratioP2;P2;SDS_P1;SDS_P2;PMS_P1;PMS_P2;Temp;Humidity;BMP_temperature;BMP_pressure;BME280_temperature;BME280_humidity;BME280_pressure;Samples;Min_cycle;Max_cycle;Signal;HPM_P1;HPM_P2
2022/10/31 00:00:13;;;;;;;0.10;0.10;;;;;;;;;;4952576;28;20395;-80
2022/10/31 00:02:39;;;;;;;0.10;0.10;;;;;;;;;;4967471;28;20976;-79
2022/10/31 00:05:05;;;;;;;0.10;0.10;;;;;;;;;;4952658;28;20482;-80
2022/10/31 00:07:31;;;;;;;0.20;0.20;;;;;;;;;;4950958;29;20418;-80
2022/10/31 00:09:57;;;;;;;0.10;0.10;;;;;;;;;;4952006;29;20488;-80
2022/10/31 00:12:23;;;;;;;0.10;0.10;;;;;;;;;;4951597;29;20422;-80
2022/10/31 00:14:49;;;;;;;0.10;0.10;;;;;;;;;;4966449;28;20809;-80
2022/10/31 00:17:15;;;;;;;0.10;0.10;;;;;;;;;;4952184;28;20445;-80
2022/10/31 00:19:41;;;;;;;0.30;0.30;;;;;;;;;;4951330;29;20417;-79
2022/10/31 00:22:07;;;;;;;0.10;0.10;;;;;;;;;;4952708;29;20462;-80
2022/10/31 00:24:33;;;;;;;0.10;0.10;;;;;;;;;;4952540;28;20731;-79
2022/10/31 00:26:59;;;;;;;0.30;0.30;;;;;;;;;;4952274;29;20448;-80
2022/10/31 00:29:25;;;;;;;0.10;0.10;;;;;;;;;;4952026;29;20426;-80
2022/10/31 00:31:52;;;;;;;0.10;0.10;;;;;;;;;;4952097;28;20533;-80
2022/10/31 00:34:18;;;;;;;0.10;0.10;;;;;;;;;;4950979;29;20955;-80
2022/10/31 00:36:44;;;;;;;0.03;0.03;;;;;;;;;;4966213;28;20406;-79
2022/10/31 00:39:10;;;;;;;0.10;0.10;;;;;;;;;;4950516;28;20406;-80
2022/10/31 00:41:36;;;;;;;0.30;0.30;;;;;;;;;;4951453;29;20452;-80
2022/10/31 00:44:02;;;;;;;0.10;0.10;;;;;;;;;;4949254;29;20409;-86
2022/10/31 00:46:28;;;;;;;0.10;0.10;;;;;;;;;;4965530;28;20421;-88
2022/10/31 00:48:54;;;;;;;0.60;0.30;;;;;;;;;;4952681;29;20437;-83
2022/10/31 00:51:20;;;;;;;0.10;0.10;;;;;;;;;;4967422;28;20439;-85
2022/10/31 00:53:46;;;;;;;0.08;0.08;;;;;;;;;;4951955;29;20418;-85
2022/10/31 00:56:12;;;;;;;0.10;0.10;;;;;;;;;;4952938;29;20433;-85
2022/10/31 00:58:38;;;;;;;0.20;0.20;;;;;;;;;;4951842;28;20418;-84
2022/10/31 01:01:05;;;;;;;0.10;0.10;;;;;;;;;;4951435;29;20410;-82
2022/10/31 01:03:32;;;;;;;0.10;0.10;;;;;;;;;;4966520;28;20442;-84
2022/10/31 01:06:03;;;;;;;0.10;0.10;;;;;;;;;;4950970;29;20429;-85
2022/10/31 01:08:29;;;;;;;0.10;0.10;;;;;;;;;;4966543;28;20449;-82
2022/10/31 01:11:10;;;;;;;0.10;0.10;;;;;;;;;;4951450;29;20449;-85
2022/10/31 01:13:36;;;;;;;0.30;0.30;;;;;;;;;;4951189;28;20409;-84
2022/10/31 01:16:04;;;;;;;0.00;0.00;;;;;;;;;;4966713;28;20432;-84
2022/10/31 01:18:30;;;;;;;0.00;0.00;;;;;;;;;;4967104;28;20418;-85
2022/10/31 01:20:59;;;;;;;0.10;0.10;;;;;;;;;;4967013;28;20410;-84
2022/10/31 01:23:25;;;;;;;0.30;0.30;;;;;;;;;;4952320;28;20446;-85
2022/10/31 01:25:59;;;;;;;0.10;0.10;;;;;;;;;;4953026;28;21048;-85
2022/10/31 01:28:25;;;;;;;0.00;0.00;;;;;;;;;;4968151;28;20885;-82
2022/10/31 01:30:51;;;;;;;0.70;0.35;;;;;;;;;;4953185;28;20961;-85
2022/10/31 01:33:17;;;;;;;0.20;0.20;;;;;;;;;;4955706;29;20405;-86
2022/10/31 01:35:43;;;;;;;0.00;0.00;;;;;;;;;;4954534;29;20922;-85
2022/10/31 01:38:09;;;;;;;0.10;0.10;;;;;;;;;;4955177;28;21047;-85
2022/10/31 01:40:35;;;;;;;0.10;0.10;;;;;;;;;;4955285;28;20560;-83
2022/10/31 01:43:01;;;;;;;0.10;0.10;;;;;;;;;;4970581;28;20912;-85
2022/10/31 01:45:27;;;;;;;0.10;0.10;;;;;;;;;;4954663;29;20421;-85
2022/10/31 01:47:53;;;;;;;0.10;0.10;;;;;;;;;;4953963;28;20414;-85
2022/10/31 01:50:27;;;;;;;1.90;0.30;;;;;;;;;;4955636;29;20429;-84
2022/10/31 01:52:53;;;;;;;0.10;0.10;;;;;;;;;;4971186;28;20923;-85
2022/10/31 01:55:28;;;;;;;0.10;0.10;;;;;;;;;;4956308;28;20442;-84
2022/10/31 01:57:55;;;;;;;0.10;0.10;;;;;;;;;;4955856;29;20413;-83
2022/10/31 02:00:22;;;;;;;0.10;0.10;;;;;;;;;;4955788;28;20414;-84
2022/10/31 02:02:49;;;;;;;0.10;0.10;;;;;;;;;;4954880;29;20969;-84
2022/10/31 02:05:17;;;;;;;0.10;0.10;;;;;;;;;;4971232;28;20932;-84
2022/10/31 02:07:50;;;;;;;0.10;0.10;;;;;;;;;;4954733;29;20413;-84
2022/10/31 02:10:17;;;;;;;0.30;0.30;;;;;;;;;;4954878;29;20917;-83
2022/10/31 02:12:43;;;;;;;0.20;0.20;;;;;;;;;;4954898;29;20940;-84
2022/10/31 02:15:09;;;;;;;0.00;0.00;;;;;;;;;;4971204;28;20418;-84
2022/10/31 02:17:35;;;;;;;0.10;0.10;;;;;;;;;;4955239;28;20500;-84
2022/10/31 02:20:08;;;;;;;0.10;0.10;;;;;;;;;;4955168;29;20476;-84
2022/10/31 02:22:37;;;;;;;0.10;0.10;;;;;;;;;;4954459;29;20464;-83
2022/10/31 02:25:12;;;;;;;0.10;0.10;;;;;;;;;;4955486;29;20402;-84
2022/10/31 02:27:44;;;;;;;0.10;0.10;;;;;;;;;;4955517;29;20402;-83
2022/10/31 02:30:20;;;;;;;0.50;0.30;;;;;;;;;;4954911;29;20908;-83
2022/10/31 02:32:47;;;;;;;0.10;0.10;;;;;;;;;;4953322;29;20426;-85
2022/10/31 02:35:25;;;;;;;0.30;0.30;;;;;;;;;;4953747;29;20989;-84
2022/10/31 02:38:04;;;;;;;0.20;0.20;;;;;;;;;;4953256;29;20418;-83
2022/10/31 02:40:56;;;;;;;0.10;0.10;;;;;;;;;;4969592;28;20452;-83
2022/10/31 02:43:27;;;;;;;0.10;0.10;;;;;;;;;;4959950;28;20662;-83
2022/10/31 02:45:57;;;;;;;0.10;0.10;;;;;;;;;;4954340;28;20416;-84
2022/10/31 02:48:26;;;;;;;0.10;0.10;;;;;;;;;;4949114;29;20417;-83
2022/10/31 02:51:00;;;;;;;0.00;0.00;;;;;;;;;;4969070;28;20781;-84
2022/10/31 02:53:27;;;;;;;0.00;0.00;;;;;;;;;;4952875;29;20476;-84
2022/10/31 02:56:01;;;;;;;0.10;0.10;;;;;;;;;;4954038;28;20421;-84
2022/10/31 02:58:31;;;;;;;0.10;0.10;;;;;;;;;;4970041;28;20454;-82
2022/10/31 03:01:15;;;;;;;0.10;0.10;;;;;;;;;;4969770;28;20457;-83
2022/10/31 03:03:59;;;;;;;0.10;0.10;;;;;;;;;;4954415;28;20398;-84
2022/10/31 03:06:32;;;;;;;0.05;0.05;;;;;;;;;;4954377;29;20509;-84
2022/10/31 03:09:01;;;;;;;0.10;0.10;;;;;;;;;;4952848;29;20434;-84
2022/10/31 03:11:32;;;;;;;0.10;0.10;;;;;;;;;;4953535;29;20426;-83
2022/10/31 03:14:07;;;;;;;0.10;0.10;;;;;;;;;;4968689;28;20414;-83
2022/10/31 03:16:43;;;;;;;0.10;0.10;;;;;;;;;;4954359;28;20429;-83
2022/10/31 03:19:11;;;;;;;0.10;0.10;;;;;;;;;;4953750;29;20433;-85
2022/10/31 03:21:43;;;;;;;0.10;0.10;;;;;;;;;;4969475;28;20424;-84
2022/10/31 03:24:10;;;;;;;0.10;0.10;;;;;;;;;;4953697;29;20462;-84
2022/10/31 03:26:37;;;;;;;0.00;0.00;;;;;;;;;;4954155;29;20422;-84
2022/10/31 03:29:05;;;;;;;0.10;0.10;;;;;;;;;;4969574;28;20512;-84
2022/10/31 03:31:34;;;;;;;0.10;0.10;;;;;;;;;;4969527;28;20453;-85
2022/10/31 03:34:01;;;;;;;0.10;0.10;;;;;;;;;;4969533;28;20426;-84
2022/10/31 03:36:29;;;;;;;0.03;0.03;;;;;;;;;;4955180;28;20406;-84
2022/10/31 03:38:55;;;;;;;0.40;0.40;;;;;;;;;;4954902;28;20446;-84
2022/10/31 03:41:28;;;;;;;0.10;0.10;;;;;;;;;;4953865;29;20474;-84
2022/10/31 03:44:04;;;;;;;0.10;0.10;;;;;;;;;;4953227;29;20435;-83
2022/10/31 03:46:30;;;;;;;0.10;0.10;;;;;;;;;;4953759;28;20465;-82
2022/10/31 03:48:56;;;;;;;0.10;0.10;;;;;;;;;;4952905;29;20445;-83
2022/10/31 03:51:25;;;;;;;0.10;0.10;;;;;;;;;;4953241;29;20457;-83
2022/10/31 03:54:14;;;;;;;0.10;0.10;;;;;;;;;;4968476;28;20414;-84
2022/10/31 03:56:42;;;;;;;0.30;0.30;;;;;;;;;;4953319;28;20465;-82
2022/10/31 03:59:16;;;;;;;0.10;0.10;;;;;;;;;;4969023;28;20766;-82
2022/10/31 04:01:46;;;;;;;0.20;0.20;;;;;;;;;;4969376;28;20446;-83
2022/10/31 04:04:12;;;;;;;0.10;0.10;;;;;;;;;;4969233;28;20702;-84
2022/10/31 04:06:40;;;;;;;0.10;0.10;;;;;;;;;;4953011;29;20422;-83
2022/10/31 04:09:08;;;;;;;0.10;0.10;;;;;;;;;;4969015;28;20521;-83
2022/10/31 04:11:35;;;;;;;1.48;0.43;;;;;;;;;;4953947;29;20765;-84
2022/10/31 04:14:02;;;;;;;0.10;0.10;;;;;;;;;;4952760;29;20414;-84
2022/10/31 04:16:28;;;;;;;0.10;0.10;;;;;;;;;;4968688;28;20911;-84
2022/10/31 04:18:56;;;;;;;0.10;0.10;;;;;;;;;;4953056;28;20629;-83
2022/10/31 04:21:29;;;;;;;0.10;0.10;;;;;;;;;;4953000;29;20912;-84
2022/10/31 04:23:55;;;;;;;0.10;0.10;;;;;;;;;;4967962;28;20416;-83
2022/10/31 04:26:21;;;;;;;0.10;0.10;;;;;;;;;;4953239;29;20873;-84
2022/10/31 04:28:47;;;;;;;0.10;0.10;;;;;;;;;;4969021;28;20488;-84
2022/10/31 04:31:14;;;;;;;0.10;0.10;;;;;;;;;;4952613;29;20418;-84
2022/10/31 04:33:40;;;;;;;0.10;0.10;;;;;;;;;;4968720;28;20537;-84
2022/10/31 04:36:06;;;;;;;0.10;0.10;;;;;;;;;;4952324;28;20473;-84
2022/10/31 04:38:32;;;;;;;0.10;0.10;;;;;;;;;;4952585;29;20777;-83
2022/10/31 04:40:58;;;;;;;0.10;0.10;;;;;;;;;;4968269;28;20904;-84
2022/10/31 04:43:24;;;;;;;0.10;0.10;;;;;;;;;;4952226;28;20470;-83
2022/10/31 04:45:50;;;;;;;0.10;0.10;;;;;;;;;;4952056;29;20761;-84
2022/10/31 04:48:16;;;;;;;0.10;0.10;;;;;;;;;;4968296;28;20568;-84
2022/10/31 04:50:42;;;;;;;0.00;0.00;;;;;;;;;;4952456;29;20444;-84
2022/10/31 04:53:08;;;;;;;0.10;0.10;;;;;;;;;;4952243;29;20418;-83
2022/10/31 04:55:35;;;;;;;0.10;0.10;;;;;;;;;;4952023;29;20429;-83
2022/10/31 04:58:01;;;;;;;0.00;0.00;;;;;;;;;;4968281;28;20422;-82
2022/10/31 05:00:27;;;;;;;0.10;0.10;;;;;;;;;;4952658;28;20422;-83
2022/10/31 05:02:55;;;;;;;0.10;0.10;;;;;;;;;;4953353;29;20772;-84
2022/10/31 05:05:22;;;;;;;0.10;0.10;;;;;;;;;;4952113;28;20805;-84
2022/10/31 05:07:49;;;;;;;0.00;0.00;;;;;;;;;;4953338;28;20978;-85
2022/10/31 05:10:16;;;;;;;0.00;0.00;;;;;;;;;;4951917;29;20445;-84
2022/10/31 05:12:48;;;;;;;0.70;0.70;;;;;;;;;;4952208;29;20426;-84
2022/10/31 05:15:14;;;;;;;0.10;0.10;;;;;;;;;;4951447;29;20436;-84
2022/10/31 05:17:40;;;;;;;0.10;0.10;;;;;;;;;;4953313;29;20418;-83
2022/10/31 05:20:07;;;;;;;0.10;0.10;;;;;;;;;;4952815;28;20418;-83
2022/10/31 05:22:33;;;;;;;0.10;0.10;;;;;;;;;;4967782;28;20425;-83
2022/10/31 05:24:59;;;;;;;0.13;0.13;;;;;;;;;;4953393;28;20409;-84
2022/10/31 05:27:25;;;;;;;0.20;0.20;;;;;;;;;;4967730;28;20453;-83
2022/10/31 05:29:51;;;;;;;0.10;0.10;;;;;;;;;;4951617;29;20433;-84
2022/10/31 05:32:17;;;;;;;0.10;0.10;;;;;;;;;;4967661;28;20421;-86
2022/10/31 05:34:43;;;;;;;0.17;0.17;;;;;;;;;;4965645;28;20878;-82
2022/10/31 05:37:09;;;;;;;0.00;0.00;;;;;;;;;;4950037;29;21019;-82
2022/10/31 05:39:35;;;;;;;0.20;0.20;;;;;;;;;;4950582;29;20885;-76
2022/10/31 05:42:01;;;;;;;0.10;0.10;;;;;;;;;;4952423;28;21002;-76
2022/10/31 05:44:27;;;;;;;0.08;0.08;;;;;;;;;;4952010;28;20445;-77
2022/10/31 05:46:53;;;;;;;0.10;0.10;;;;;;;;;;4952353;29;20420;-78
2022/10/31 05:49:19;;;;;;;0.10;0.10;;;;;;;;;;4950663;29;20513;-78
2022/10/31 05:51:45;;;;;;;0.00;0.00;;;;;;;;;;4966918;28;20426;-79
2022/10/31 05:54:11;;;;;;;0.10;0.10;;;;;;;;;;4953028;29;20413;-78
2022/10/31 05:56:37;;;;;;;0.17;0.17;;;;;;;;;;4967387;28;20429;-78
2022/10/31 05:59:03;;;;;;;0.10;0.10;;;;;;;;;;4968231;28;20453;-77
2022/10/31 06:01:29;;;;;;;0.10;0.10;;;;;;;;;;4966409;28;20840;-77
2022/10/31 06:03:55;;;;;;;0.10;0.10;;;;;;;;;;4966742;28;20991;-78
2022/10/31 06:06:21;;;;;;;0.30;0.30;;;;;;;;;;4951243;29;20414;-78
2022/10/31 06:08:47;;;;;;;0.20;0.20;;;;;;;;;;4967039;28;20461;-78
2022/10/31 06:11:13;;;;;;;0.10;0.10;;;;;;;;;;4951637;29;20410;-79
2022/10/31 06:13:39;;;;;;;0.10;0.10;;;;;;;;;;4951652;28;20453;-80
2022/10/31 06:16:05;;;;;;;0.10;0.10;;;;;;;;;;4950489;28;20433;-80
2022/10/31 06:18:31;;;;;;;0.10;0.10;;;;;;;;;;4954727;28;20819;-80
2022/10/31 06:20:57;;;;;;;0.10;0.10;;;;;;;;;;4954733;28;20931;-80
2022/10/31 06:23:23;;;;;;;0.10;0.10;;;;;;;;;;4970831;28;20421;-80
2022/10/31 06:25:50;;;;;;;0.10;0.10;;;;;;;;;;4955848;28;20409;-80
2022/10/31 06:28:16;;;;;;;0.10;0.10;;;;;;;;;;4970830;28;20453;-80
2022/10/31 06:30:42;;;;;;;0.50;0.50;;;;;;;;;;4954715;29;20448;-80
2022/10/31 06:33:08;;;;;;;0.60;0.50;;;;;;;;;;4955162;29;20462;-80
2022/10/31 06:35:34;;;;;;;0.10;0.10;;;;;;;;;;4954540;29;20769;-80
2022/10/31 06:38:00;;;;;;;0.10;0.10;;;;;;;;;;4969951;28;20422;-80
2022/10/31 06:40:26;;;;;;;0.10;0.10;;;;;;;;;;4969618;28;20469;-79
2022/10/31 06:42:56;;;;;;;1.00;1.00;;;;;;;;;;4955131;28;20425;-80
2022/10/31 06:45:23;;;;;;;0.10;0.10;;;;;;;;;;4952534;29;20545;-80
2022/10/31 06:47:53;;;;;;;0.10;0.10;;;;;;;;;;4969951;28;20457;-81
2022/10/31 06:50:19;;;;;;;0.20;0.20;;;;;;;;;;4953729;29;20486;-81
2022/10/31 06:52:50;;;;;;;0.10;0.10;;;;;;;;;;4956039;28;20417;-81
2022/10/31 06:55:16;;;;;;;0.07;0.07;;;;;;;;;;4970027;28;20494;-81
2022/10/31 06:57:42;;;;;;;0.20;0.20;;;;;;;;;;4970936;28;20417;-81
2022/10/31 07:00:09;;;;;;;0.40;0.40;;;;;;;;;;4970599;28;20428;-80
2022/10/31 07:02:35;;;;;;;0.10;0.10;;;;;;;;;;4954782;29;21091;-81
2022/10/31 07:05:01;;;;;;;0.13;0.13;;;;;;;;;;4953948;29;20932;-81
2022/10/31 07:07:27;;;;;;;0.10;0.10;;;;;;;;;;4938688;29;20422;-81
2022/10/31 07:09:53;;;;;;;0.10;0.10;;;;;;;;;;4954380;29;20430;-81
2022/10/31 07:12:19;;;;;;;0.25;0.25;;;;;;;;;;4954362;28;20425;-81
2022/10/31 07:14:45;;;;;;;0.10;0.10;;;;;;;;;;4955677;29;20413;-81
2022/10/31 07:17:11;;;;;;;0.15;0.15;;;;;;;;;;4953518;29;20430;-81
2022/10/31 07:19:37;;;;;;;0.10;0.10;;;;;;;;;;4954024;29;21101;-81
2022/10/31 07:22:03;;;;;;;0.10;0.10;;;;;;;;;;4953443;28;20501;-81
2022/10/31 07:24:30;;;;;;;0.10;0.10;;;;;;;;;;4953274;29;20535;-80
2022/10/31 07:26:56;;;;;;;0.10;0.10;;;;;;;;;;4954111;28;21174;-80
2022/10/31 07:29:22;;;;;;;0.50;0.50;;;;;;;;;;4953237;29;20437;-79
2022/10/31 07:31:48;;;;;;;0.10;0.10;;;;;;;;;;4954498;29;20500;-82
2022/10/31 07:34:14;;;;;;;0.10;0.10;;;;;;;;;;4955082;28;20488;-82
2022/10/31 07:36:40;;;;;;;0.10;0.10;;;;;;;;;;4952384;29;20425;-79
2022/10/31 07:39:06;;;;;;;0.03;0.03;;;;;;;;;;4955049;28;20413;-80
2022/10/31 07:41:32;;;;;;;0.10;0.10;;;;;;;;;;4954091;29;20418;-80
2022/10/31 07:43:58;;;;;;;0.30;0.30;;;;;;;;;;4954988;29;20460;-80
2022/10/31 07:46:24;;;;;;;0.20;0.20;;;;;;;;;;4952675;29;20426;-80
2022/10/31 07:48:50;;;;;;;0.10;0.10;;;;;;;;;;4953311;28;20432;-80
2022/10/31 07:51:16;;;;;;;0.17;0.17;;;;;;;;;;4954142;28;20648;-80
2022/10/31 07:53:42;;;;;;;0.10;0.10;;;;;;;;;;4968990;28;20410;-80
2022/10/31 07:56:08;;;;;;;0.20;0.20;;;;;;;;;;4953959;28;20416;-80
2022/10/31 07:58:34;;;;;;;0.40;0.40;;;;;;;;;;4953816;29;20435;-79
2022/10/31 08:01:00;;;;;;;0.10;0.10;;;;;;;;;;4953072;29;20508;-80
2022/10/31 08:03:26;;;;;;;0.40;0.40;;;;;;;;;;4954119;28;20421;-80
2022/10/31 08:05:52;;;;;;;0.20;0.20;;;;;;;;;;4952853;29;20472;-81
2022/10/31 08:08:19;;;;;;;0.20;0.20;;;;;;;;;;4954172;28;20414;-80
2022/10/31 08:10:45;;;;;;;0.10;0.10;;;;;;;;;;4953778;29;20801;-80
2022/10/31 08:13:12;;;;;;;0.13;0.13;;;;;;;;;;4953884;28;20414;-80
2022/10/31 08:15:41;;;;;;;0.10;0.10;;;;;;;;;;4968246;28;20854;-80
2022/10/31 08:18:11;;;;;;;0.10;0.10;;;;;;;;;;4953028;29;20520;-80
2022/10/31 08:20:37;;;;;;;0.35;0.28;;;;;;;;;;4952528;29;20422;-80
2022/10/31 08:23:04;;;;;;;0.20;0.20;;;;;;;;;;4953127;29;20500;-80
2022/10/31 08:25:31;;;;;;;0.20;0.20;;;;;;;;;;4968567;28;20433;-80
2022/10/31 08:27:57;;;;;;;0.10;0.10;;;;;;;;;;4968756;28;20422;-80
2022/10/31 08:30:24;;;;;;;0.20;0.20;;;;;;;;;;4953964;29;20504;-80
2022/10/31 08:33:02;;;;;;;0.10;0.10;;;;;;;;;;4968615;28;20485;-80
2022/10/31 08:35:28;;;;;;;0.20;0.20;;;;;;;;;;4952914;29;20983;-80
2022/10/31 08:37:55;;;;;;;0.00;0.00;;;;;;;;;;4968691;28;20428;-80
2022/10/31 08:40:21;;;;;;;1.40;1.00;;;;;;;;;;4968251;28;20432;-80
2022/10/31 08:42:47;;;;;;;0.03;0.03;;;;;;;;;;4953503;29;20449;-80
2022/10/31 08:45:13;;;;;;;0.10;0.10;;;;;;;;;;4952880;28;20421;-80
2022/10/31 08:47:40;;;;;;;0.10;0.10;;;;;;;;;;4951647;29;20473;-81
2022/10/31 08:50:06;;;;;;;0.10;0.10;;;;;;;;;;4951773;28;20769;-81
2022/10/31 08:52:32;;;;;;;0.10;0.10;;;;;;;;;;4952575;29;20410;-80
2022/10/31 08:54:58;;;;;;;0.10;0.10;;;;;;;;;;4953383;28;20417;-80
2022/10/31 08:57:24;;;;;;;1.10;0.50;;;;;;;;;;4952229;29;20421;-80
2022/10/31 08:59:50;;;;;;;0.10;0.10;;;;;;;;;;4953076;29;20877;-79
2022/10/31 09:02:16;;;;;;;0.90;0.70;;;;;;;;;;4953555;28;20429;-80
2022/10/31 09:04:42;;;;;;;0.17;0.17;;;;;;;;;;4951994;29;20416;-79
2022/10/31 09:07:08;;;;;;;0.10;0.10;;;;;;;;;;4952783;29;20447;-80
2022/10/31 09:09:34;;;;;;;0.30;0.30;;;;;;;;;;4967923;28;20506;-80
2022/10/31 09:12:00;;;;;;;0.10;0.10;;;;;;;;;;4952229;29;20421;-81
2022/10/31 09:14:26;;;;;;;0.10;0.10;;;;;;;;;;4968733;28;20416;-80
2022/10/31 09:16:52;;;;;;;0.10;0.10;;;;;;;;;;4951763;28;20770;-81
2022/10/31 09:19:18;;;;;;;0.10;0.10;;;;;;;;;;4951524;28;20961;-78
2022/10/31 09:21:44;;;;;;;0.10;0.10;;;;;;;;;;4970704;28;20493;-80
2022/10/31 09:24:10;;;;;;;0.50;0.50;;;;;;;;;;4967360;28;20743;-80
2022/10/31 09:26:36;;;;;;;0.10;0.10;;;;;;;;;;4951757;29;20956;-83
2022/10/31 09:29:02;;;;;;;0.17;0.17;;;;;;;;;;4952610;29;21009;-82
2022/10/31 09:31:28;;;;;;;1.60;0.60;;;;;;;;;;4968235;28;20453;-80
2022/10/31 09:33:55;;;;;;;0.60;0.60;;;;;;;;;;4950944;29;20499;-79
2022/10/31 09:36:21;;;;;;;0.60;0.50;;;;;;;;;;4951740;28;20414;-81
2022/10/31 09:38:47;;;;;;;0.20;0.20;;;;;;;;;;4967863;28;20406;-79
2022/10/31 09:41:29;;;;;;;0.20;0.20;;;;;;;;;;4950656;29;20528;-81
2022/10/31 09:44:02;;;;;;;0.10;0.10;;;;;;;;;;4952514;28;20417;-79
2022/10/31 09:46:38;;;;;;;0.20;0.20;;;;;;;;;;4968515;28;20417;-80
2022/10/31 09:49:07;;;;;;;0.20;0.20;;;;;;;;;;4952359;29;20973;-80
2022/10/31 09:51:53;;;;;;;0.10;0.10;;;;;;;;;;4955560;28;20893;-79
2022/10/31 09:54:22;;;;;;;0.10;0.10;;;;;;;;;;4956682;28;20421;-81
2022/10/31 09:56:48;;;;;;;0.10;0.10;;;;;;;;;;4970513;28;20877;-79
2022/10/31 09:59:30;;;;;;;0.17;0.17;;;;;;;;;;4971063;28;20521;-79
2022/10/31 10:01:59;;;;;;;0.10;0.10;;;;;;;;;;4953550;29;20564;-79
2022/10/31 10:04:44;;;;;;;0.20;0.20;;;;;;;;;;4970569;28;20792;-79
2022/10/31 10:07:27;;;;;;;0.10;0.10;;;;;;;;;;4955394;29;20939;-77
2022/10/31 10:09:53;;;;;;;0.80;0.50;;;;;;;;;;4955331;29;20916;-78
2022/10/31 10:12:34;;;;;;;0.10;0.10;;;;;;;;;;4955227;29;20925;-78
2022/10/31 10:15:03;;;;;;;1.30;0.30;;;;;;;;;;4955552;29;20421;-80
2022/10/31 10:17:38;;;;;;;0.50;0.50;;;;;;;;;;4954597;29;20437;-80
2022/10/31 10:20:16;;;;;;;0.50;0.50;;;;;;;;;;4971216;28;20500;-80
2022/10/31 10:23:07;;;;;;;0.40;0.30;;;;;;;;;;4954400;29;20485;-80
2022/10/31 10:25:40;;;;;;;0.20;0.20;;;;;;;;;;4953929;29;20421;-80
2022/10/31 10:28:21;;;;;;;0.10;0.10;;;;;;;;;;4953845;29;20456;-80
2022/10/31 10:30:51;;;;;;;37.03;35.08;;;;;;;;;;4970743;28;20433;-81
2022/10/31 10:33:22;;;;;;;107.13;101.77;;;;;;;;;;4955875;28;20550;-79
2022/10/31 10:35:50;;;;;;;117.18;111.18;;;;;;;;;;4970097;28;20406;-80
2022/10/31 10:38:30;;;;;;;146.23;138.77;;;;;;;;;;4954527;28;20417;-79
2022/10/31 10:40:56;;;;;;;61.83;58.45;;;;;;;;;;4953066;28;20437;-79
2022/10/31 10:43:33;;;;;;;203.85;192.85;;;;;;;;;;4954242;28;20421;-80
2022/10/31 10:49:03;;;;;;;2.35;2.25;;;;;;;;;;4968986;28;20464;-79
2022/10/31 10:51:48;;;;;;;0.30;0.30;;;;;;;;;;4954735;29;20893;-79
2022/10/31 10:54:20;;;;;;;0.30;0.30;;;;;;;;;;4954555;29;20410;-79
2022/10/31 10:56:54;;;;;;;0.20;0.20;;;;;;;;;;4953605;28;20653;-80
2022/10/31 10:59:21;;;;;;;0.40;0.40;;;;;;;;;;4954072;29;20421;-79
2022/10/31 11:01:49;;;;;;;0.40;0.40;;;;;;;;;;4969331;28;20410;-78
2022/10/31 11:04:24;;;;;;;0.40;0.40;;;;;;;;;;4953282;29;20469;-79
2022/10/31 11:07:20;;;;;;;0.13;0.13;;;;;;;;;;4953098;29;20472;-80
2022/10/31 11:09:46;;;;;;;4.60;1.00;;;;;;;;;;4957139;28;20470;-80
2022/10/31 11:12:21;;;;;;;0.10;0.10;;;;;;;;;;4969670;28;20909;-79
2022/10/31 11:14:47;;;;;;;0.10;0.10;;;;;;;;;;4953613;29;20424;-81
2022/10/31 11:17:21;;;;;;;0.30;0.30;;;;;;;;;;4968703;28;20426;-77
2022/10/31 11:19:48;;;;;;;0.05;0.05;;;;;;;;;;4954573;29;20409;-81
2022/10/31 11:22:17;;;;;;;0.10;0.10;;;;;;;;;;4969727;28;20428;-78
2022/10/31 11:24:44;;;;;;;0.40;0.40;;;;;;;;;;4970301;28;20855;-81
2022/10/31 11:27:13;;;;;;;0.10;0.10;;;;;;;;;;4969657;28;20433;-81
2022/10/31 11:29:39;;;;;;;0.70;0.47;;;;;;;;;;4969936;28;20524;-78
2022/10/31 11:32:05;;;;;;;0.20;0.20;;;;;;;;;;4953378;28;20414;-78
2022/10/31 11:34:31;;;;;;;0.10;0.10;;;;;;;;;;4954863;28;20409;-78
2022/10/31 11:37:13;;;;;;;0.20;0.20;;;;;;;;;;4953758;29;20426;-78
2022/10/31 11:39:42;;;;;;;0.10;0.10;;;;;;;;;;4954584;29;20413;-77
2022/10/31 11:42:08;;;;;;;0.10;0.10;;;;;;;;;;4954327;28;20425;-79
2022/10/31 11:44:34;;;;;;;0.20;0.20;;;;;;;;;;4953509;28;20422;-79
2022/10/31 11:47:02;;;;;;;0.10;0.10;;;;;;;;;;4952815;28;20413;-79
2022/10/31 11:49:31;;;;;;;0.10;0.10;;;;;;;;;;4953118;29;20430;-77
2022/10/31 11:52:00;;;;;;;1.50;0.70;;;;;;;;;;4968208;28;20501;-77
2022/10/31 11:54:29;;;;;;;0.60;0.60;;;;;;;;;;4968671;28;20440;-76
2022/10/31 11:56:55;;;;;;;0.38;0.38;;;;;;;;;;4953973;29;20418;-77
2022/10/31 11:59:28;;;;;;;0.20;0.20;;;;;;;;;;4952646;29;20425;-77
2022/10/31 12:01:56;;;;;;;0.10;0.10;;;;;;;;;;4953024;29;20413;-78
2022/10/31 12:04:28;;;;;;;0.10;0.10;;;;;;;;;;4952693;29;20456;-78
2022/10/31 12:06:54;;;;;;;0.10;0.10;;;;;;;;;;4953871;29;20849;-77
2022/10/31 12:09:27;;;;;;;0.20;0.20;;;;;;;;;;4952976;29;20476;-78
2022/10/31 12:12:02;;;;;;;0.20;0.20;;;;;;;;;;4952281;29;20464;-78
2022/10/31 12:14:43;;;;;;;0.20;0.20;;;;;;;;;;4952884;28;20418;-76
2022/10/31 12:17:09;;;;;;;0.10;0.10;;;;;;;;;;4967613;28;20480;-84
2022/10/31 12:19:35;;;;;;;0.10;0.10;;;;;;;;;;4952525;29;20425;-83
2022/10/31 12:22:18;;;;;;;0.40;0.40;;;;;;;;;;4969174;28;20422;-83
2022/10/31 12:24:44;;;;;;;0.10;0.10;;;;;;;;;;4968995;28;20429;-82
2022/10/31 12:27:13;;;;;;;0.10;0.10;;;;;;;;;;4952742;29;20435;-82
2022/10/31 12:29:51;;;;;;;0.10;0.10;;;;;;;;;;4952612;29;20960;-81
2022/10/31 12:32:25;;;;;;;0.77;0.68;;;;;;;;;;4952867;29;20432;-83
2022/10/31 12:34:55;;;;;;;0.10;0.10;;;;;;;;;;4952293;29;20513;-82
2022/10/31 12:37:21;;;;;;;0.10;0.10;;;;;;;;;;4952973;28;20469;-82
2022/10/31 12:39:56;;;;;;;0.10;0.10;;;;;;;;;;4951443;29;20469;-84
2022/10/31 12:42:25;;;;;;;0.30;0.20;;;;;;;;;;4951672;29;20913;-82
2022/10/31 12:45:20;;;;;;;0.10;0.10;;;;;;;;;;4951363;29;20896;-82
2022/10/31 12:48:01;;;;;;;0.20;0.20;;;;;;;;;;4967100;28;20895;-83
2022/10/31 12:50:36;;;;;;;0.10;0.10;;;;;;;;;;4951103;29;20477;-77
2022/10/31 12:53:21;;;;;;;0.40;0.40;;;;;;;;;;4950763;29;20430;-87
2022/10/31 12:56:06;;;;;;;0.00;0.00;;;;;;;;;;4951189;28;20996;-86
2022/10/31 12:58:38;;;;;;;0.20;0.20;;;;;;;;;;4951894;29;20529;-84
2022/10/31 13:01:15;;;;;;;0.10;0.10;;;;;;;;;;4952146;28;20433;-82
2022/10/31 13:03:50;;;;;;;0.10;0.10;;;;;;;;;;4952962;29;20449;-87
2022/10/31 13:06:21;;;;;;;0.10;0.10;;;;;;;;;;4951467;29;20442;-80
2022/10/31 13:08:53;;;;;;;0.00;0.00;;;;;;;;;;4968196;28;20460;-78
2022/10/31 13:11:25;;;;;;;0.00;0.00;;;;;;;;;;4967808;28;20434;-80
2022/10/31 13:14:10;;;;;;;0.10;0.10;;;;;;;;;;4968508;28;21003;-81
2022/10/31 13:16:41;;;;;;;0.30;0.30;;;;;;;;;;4951142;28;20516;-79
2022/10/31 13:19:13;;;;;;;0.20;0.20;;;;;;;;;;4966869;28;21033;-78
2022/10/31 13:21:50;;;;;;;0.10;0.10;;;;;;;;;;4966951;28;20932;-78
2022/10/31 13:24:32;;;;;;;0.10;0.10;;;;;;;;;;4951714;29;20424;-76
2022/10/31 13:26:59;;;;;;;0.00;0.00;;;;;;;;;;4967460;28;20472;-79
2022/10/31 13:29:25;;;;;;;0.10;0.10;;;;;;;;;;4967288;28;20429;-78
2022/10/31 13:31:52;;;;;;;0.10;0.10;;;;;;;;;;4952314;29;20759;-80
2022/10/31 13:34:18;;;;;;;0.10;0.10;;;;;;;;;;4967166;28;20505;-81
2022/10/31 13:36:56;;;;;;;0.10;0.10;;;;;;;;;;4952649;29;20553;-81
2022/10/31 13:39:41;;;;;;;0.20;0.20;;;;;;;;;;4951099;29;20434;-87
2022/10/31 13:42:22;;;;;;;0.00;0.00;;;;;;;;;;4951973;29;20417;-82
2022/10/31 13:44:48;;;;;;;0.10;0.10;;;;;;;;;;4951926;29;20526;-87
2022/10/31 13:47:27;;;;;;;0.10;0.10;;;;;;;;;;4952103;29;20550;-92
2022/10/31 13:50:12;;;;;;;0.10;0.10;;;;;;;;;;4967884;28;20480;-86
2022/10/31 13:52:38;;;;;;;0.20;0.20;;;;;;;;;;4952034;29;20925;-85
2022/10/31 13:55:04;;;;;;;0.10;0.10;;;;;;;;;;4967138;28;20417;-87
2022/10/31 13:57:32;;;;;;;0.50;0.30;;;;;;;;;;4951088;29;20912;-84
2022/10/31 14:00:21;;;;;;;0.00;0.00;;;;;;;;;;4952502;28;20932;-86
2022/10/31 14:02:49;;;;;;;0.10;0.10;;;;;;;;;;4952058;28;20729;-84
2022/10/31 14:05:21;;;;;;;0.10;0.10;;;;;;;;;;4967144;28;20422;-85
2022/10/31 14:07:47;;;;;;;0.10;0.10;;;;;;;;;;4953221;29;20457;-87
2022/10/31 14:10:34;;;;;;;0.10;0.10;;;;;;;;;;4951929;29;20840;-86
2022/10/31 14:13:08;;;;;;;0.10;0.10;;;;;;;;;;4952001;29;20436;-85
2022/10/31 14:15:34;;;;;;;0.20;0.20;;;;;;;;;;4952431;29;20418;-85
2022/10/31 14:18:02;;;;;;;0.40;0.30;;;;;;;;;;4951536;28;20920;-84
2022/10/31 14:20:41;;;;;;;0.10;0.10;;;;;;;;;;4950445;29;20562;-85
2022/10/31 14:23:26;;;;;;;0.10;0.10;;;;;;;;;;4967263;28;20497;-85
2022/10/31 14:25:52;;;;;;;0.20;0.20;;;;;;;;;;4967575;28;20485;-85
2022/10/31 14:28:20;;;;;;;0.10;0.10;;;;;;;;;;4951481;29;20476;-85
2022/10/31 14:30:54;;;;;;;0.10;0.10;;;;;;;;;;4966654;28;20513;-85
2022/10/31 14:33:20;;;;;;;0.10;0.10;;;;;;;;;;4966000;28;20469;-85
2022/10/31 14:35:46;;;;;;;0.10;0.10;;;;;;;;;;4949829;29;20417;-85
2022/10/31 14:38:30;;;;;;;0.10;0.10;;;;;;;;;;4951797;28;20505;-85
2022/10/31 14:40:56;;;;;;;1.00;0.80;;;;;;;;;;4955088;29;20441;-85
2022/10/31 14:43:45;;;;;;;1.80;0.60;;;;;;;;;;4954837;29;20461;-86
2022/10/31 14:46:21;;;;;;;0.00;0.00;;;;;;;;;;4955502;28;20430;-85
2022/10/31 14:48:57;;;;;;;0.10;0.10;;;;;;;;;;4970818;28;20436;-85
2022/10/31 14:51:26;;;;;;;0.10;0.10;;;;;;;;;;4970374;28;20533;-86
2022/10/31 14:53:54;;;;;;;0.13;0.13;;;;;;;;;;4953614;29;20500;-85
2022/10/31 14:56:24;;;;;;;0.10;0.10;;;;;;;;;;4970118;28;20410;-87
2022/10/31 14:58:50;;;;;;;24.20;1.30;;;;;;;;;;4969148;28;20422;-85